Time;durP1;ratioP1;P1;durP2;ratioP2;P2;SDS_P1;SDS_P2;PMS_P1;PMS_P2;Temp;Humidity;BMP_temperature;BMP_pressure;BME280_temperature;BME280_humidity;BME280_pressure;Samples;Min_cycle;Max_cycle;Signal;HPM_P1;HPM_P2
2022/08/04 00:01:32;;;;;;;;;;;26.60;73.60;;;;;;5058568;28;19985;-49
2022/08/04 00:04:01;;;;;;;;;;;26.40;70.70;;;;;;5055406;28;19966;-53
2022/08/04 00:06:36;;;;;;;;;;;26.20;72.20;;;;;;5072953;28;19923;-48
2022/08/04 00:09:06;;;;;;;;;;;26.00;73.70;;;;;;5075200;28;19913;-54
2022/08/04 00:11:32;;;;;;;;;;;25.90;73.40;;;;;;5070517;28;20427;-54
2022/08/04 00:14:02;;;;;;;;;;;25.90;73.70;;;;;;5074313;28;20057;-53
2022/08/04 00:16:29;;;;;;;;;;;25.80;74.30;;;;;;5072065;28;19916;-55
2022/08/04 00:19:02;;;;;;;;;;;25.90;74.50;;;;;;5074665;28;20391;-50
2022/08/04 00:21:28;;;;;;;;;;;26.00;74.20;;;;;;5058327;28;19913;-55
2022/08/04 00:23:55;;;;;;;;;;;26.10;73.90;;;;;;5054647;28;19984;-52
2022/08/04 00:26:20;;;;;;;;;;;26.20;74.30;;;;;;5070238;28;19913;-53
2022/08/04 00:28:47;;;;;;;;;;;26.10;74.70;;;;;;5074554;28;20303;-53
2022/08/04 00:31:13;;;;;;;;;;;26.10;74.70;;;;;;5076070;28;19950;-53
2022/08/04 00:33:41;;;;;;;;;;;26.00;75.60;;;;;;5064390;28;19916;-53
2022/08/04 00:36:09;;;;;;;;;;;26.00;75.60;;;;;;5063718;28;19927;-53
2022/08/04 00:38:35;;;;;;;;;;;26.10;75.60;;;;;;5074289;28;19954;-51
2022/08/04 00:41:07;;;;;;;;;;;26.00;76.10;;;;;;5064868;28;19928;-53
2022/08/04 00:43:34;;;;;;;;;;;26.00;76.30;;;;;;5055219;28;20344;-49
2022/08/04 00:45:59;;;;;;;;;;;26.00;76.50;;;;;;5066469;28;19917;-49
2022/08/04 00:48:27;;;;;;;;;;;25.90;76.30;;;;;;5073877;28;20053;-52
2022/08/04 00:51:05;;;;;;;;;;;26.00;75.80;;;;;;5073073;28;19920;-54
2022/08/04 00:53:39;;;;;;;;;;;26.00;75.10;;;;;;5072542;28;20396;-53
2022/08/04 00:56:07;;;;;;;;;;;25.90;74.50;;;;;;5072787;28;19969;-50
2022/08/04 00:58:35;;;;;;;;;;;25.80;73.50;;;;;;5072250;28;20572;-50
2022/08/04 01:01:03;;;;;;;;;;;25.70;74.00;;;;;;5009675;28;1797673;-53
2022/08/04 01:03:35;;;;;;;;;;;25.50;74.10;;;;;;5075619;28;19969;-52
2022/08/04 01:06:03;;;;;;;;;;;25.50;73.60;;;;;;5070224;28;19917;-49
2022/08/04 01:08:40;;;;;;;;;;;25.40;73.30;;;;;;5054578;28;20307;-49
2022/08/04 01:11:23;;;;;;;;;;;25.30;74.50;;;;;;5059914;28;19950;-51
2022/08/04 01:14:07;;;;;;;;;;;25.30;75.30;;;;;;5076073;28;19920;-52
2022/08/04 01:16:34;;;;;;;;;;;25.30;75.20;;;;;;5064311;28;19944;-51
2022/08/04 01:19:00;;;;;;;;;;;25.30;74.90;;;;;;5055576;28;19913;-48
2022/08/04 01:21:29;;;;;;;;;;;25.30;73.70;;;;;;5062887;28;19920;-54
2022/08/04 01:24:10;;;;;;;;;;;25.30;73.80;;;;;;5074615;28;19912;-52
2022/08/04 01:26:35;;;;;;;;;;;25.20;73.50;;;;;;5066417;28;19967;-49
2022/08/04 01:29:04;;;;;;;;;;;25.20;73.80;;;;;;5055029;28;19912;-49
2022/08/04 01:31:33;;;;;;;;;;;25.30;74.60;;;;;;5059245;28;20053;-48
2022/08/04 01:34:02;;;;;;;;;;;25.20;74.50;;;;;;5074987;28;19909;-52
2022/08/04 01:36:29;;;;;;;;;;;25.10;73.50;;;;;;5069231;28;19943;-55
2022/08/04 01:38:55;;;;;;;;;;;25.00;74.00;;;;;;5053850;28;19948;-55
2022/08/04 01:41:21;;;;;;;;;;;25.00;74.90;;;;;;5057043;28;19935;-51
2022/08/04 01:43:46;;;;;;;;;;;25.00;75.10;;;;;;5069728;28;19959;-50
2022/08/04 01:46:13;;;;;;;;;;;25.00;74.80;;;;;;5073952;28;19913;-48
2022/08/04 01:48:40;;;;;;;;;;;25.00;75.30;;;;;;5074420;28;19924;-51
2022/08/04 01:51:06;;;;;;;;;;;25.00;75.30;;;;;;5073844;28;20334;-52
2022/08/04 01:53:34;;;;;;;;;;;25.00;75.20;;;;;;5054726;28;19916;-48
2022/08/04 01:56:00;;;;;;;;;;;25.00;75.50;;;;;;5052809;28;19915;-50
2022/08/04 01:58:27;;;;;;;;;;;25.00;75.80;;;;;;5072449;28;19913;-51
2022/08/04 02:01:19;;;;;;;;;;;25.00;76.70;;;;;;5073865;28;20311;-53
2022/08/04 02:03:44;;;;;;;;;;;24.90;77.30;;;;;;5068194;28;19913;-54
2022/08/04 02:06:21;;;;;;;;;;;24.80;77.30;;;;;;5053074;28;19920;-49
2022/08/04 02:09:08;;;;;;;;;;;24.70;77.90;;;;;;5053963;28;20000;-48
2022/08/04 02:11:34;;;;;;;;;;;24.60;78.60;;;;;;5054362;28;19915;-49
2022/08/04 02:13:59;;;;;;;;;;;24.50;78.10;;;;;;5073153;28;19912;-49
2022/08/04 02:16:29;;;;;;;;;;;24.40;77.70;;;;;;5066027;28;20298;-50
2022/08/04 02:19:00;;;;;;;;;;;24.20;78.50;;;;;;5052847;28;19909;-49
2022/08/04 02:21:26;;;;;;;;;;;24.20;78.60;;;;;;5058755;28;19913;-48
2022/08/04 02:24:04;;;;;;;;;;;24.10;79.40;;;;;;5073374;28;19908;-51
2022/08/04 02:26:31;;;;;;;;;;;24.00;80.30;;;;;;5065851;28;19917;-52
2022/08/04 02:28:59;;;;;;;;;;;24.10;80.10;;;;;;5055825;28;20062;-51
2022/08/04 02:31:32;;;;;;;;;;;24.20;80.10;;;;;;5070258;28;19912;-51
2022/08/04 02:33:57;;;;;;;;;;;24.20;80.80;;;;;;5071437;28;19912;-52
2022/08/04 02:36:29;;;;;;;;;;;24.30;81.20;;;;;;5067598;28;19982;-49
2022/08/04 02:38:58;;;;;;;;;;;24.30;81.00;;;;;;5052292;28;19916;-48
2022/08/04 02:41:25;;;;;;;;;;;24.30;80.90;;;;;;5053808;28;19924;-53
2022/08/04 02:43:53;;;;;;;;;;;24.30;80.70;;;;;;5068375;28;20399;-53
2022/08/04 02:46:20;;;;;;;;;;;24.20;80.40;;;;;;5071146;28;20282;-53
2022/08/04 02:48:46;;;;;;;;;;;24.20;81.20;;;;;;5073379;28;19908;-50
2022/08/04 02:51:13;;;;;;;;;;;24.10;81.40;;;;;;5073622;28;20572;-50
2022/08/04 02:53:40;;;;;;;;;;;24.10;82.00;;;;;;5073469;28;20291;-49
2022/08/04 02:56:06;;;;;;;;;;;24.00;82.40;;;;;;5072244;28;19969;-50
2022/08/04 02:58:34;;;;;;;;;;;24.10;82.80;;;;;;5052486;28;20364;-52
2022/08/04 03:00:59;;;;;;;;;;;24.10;82.50;;;;;;5051715;28;20043;-52
2022/08/04 03:03:30;;;;;;;;;;;24.00;81.70;;;;;;5068681;28;20011;-51
2022/08/04 03:06:09;;;;;;;;;;;23.90;81.90;;;;;;5068335;28;19917;-51
2022/08/04 03:08:53;;;;;;;;;;;23.80;81.80;;;;;;5051795;28;19932;-52
2022/08/04 03:11:19;;;;;;;;;;;23.70;80.40;;;;;;5056509;28;19913;-54
2022/08/04 03:13:47;;;;;;;;;;;23.40;78.40;;;;;;5073000;28;20435;-50
2022/08/04 03:16:42;;;;;;;;;;;23.40;78.60;;;;;;5068057;28;20411;-56
2022/08/04 03:19:16;;;;;;;;;;;23.30;79.20;;;;;;5052620;28;20383;-54
2022/08/04 03:22:00;;;;;;;;;;;23.30;78.50;;;;;;5060236;28;19965;-54
2022/08/04 03:24:25;;;;;;;;;;;23.30;78.70;;;;;;5073058;28;19912;-52
2022/08/04 03:26:58;;;;;;;;;;;23.30;78.00;;;;;;5063736;28;19920;-50
2022/08/04 03:29:23;;;;;;;;;;;23.40;79.00;;;;;;5053001;28;19909;-50
2022/08/04 03:32:14;;;;;;;;;;;23.40;78.80;;;;;;5053275;28;19919;-49
2022/08/04 03:34:42;;;;;;;;;;;23.40;78.40;;;;;;5053964;28;19916;-53
2022/08/04 03:37:08;;;;;;;;;;;23.40;76.90;;;;;;5062622;28;19913;-53
2022/08/04 03:39:33;;;;;;;;;;;23.40;76.30;;;;;;5072839;28;19916;-51
2022/08/04 03:42:17;;;;;;;;;;;23.40;77.60;;;;;;5063969;28;19935;-54
2022/08/04 03:45:01;;;;;;;;;;;23.40;78.60;;;;;;5059453;28;19956;-53
2022/08/04 03:48:05;;;;;;;;;;;23.40;79.70;;;;;;5066087;28;19917;-51
2022/08/04 03:53:07;;;;;;;;;;;23.40;79.10;;;;;;5069545;28;20348;-49
2022/08/04 03:53:52;;;;;;;;;;;23.40;79.20;;;;;;5048969;28;19956;-51
2022/08/04 03:56:44;;;;;;;;;;;23.40;80.10;;;;;;5056306;28;19917;-52
2022/08/04 03:59:28;;;;;;;;;;;23.40;81.10;;;;;;5070813;28;20418;-49
2022/08/04 04:01:59;;;;;;;;;;;23.50;81.40;;;;;;5064112;28;19917;-50
2022/08/04 04:04:34;;;;;;;;;;;23.60;81.10;;;;;;5081018;28;19920;-50
2022/08/04 04:07:11;;;;;;;;;;;23.70;80.60;;;;;;5090988;28;19908;-51
2022/08/04 04:09:55;;;;;;;;;;;23.70;80.70;;;;;;5089233;28;19916;-51
2022/08/04 04:12:59;;;;;;;;;;;23.70;81.10;;;;;;5061724;28;19913;-52
2022/08/04 04:15:43;;;;;;;;;;;23.60;81.50;;;;;;5067349;28;19916;-53
2022/08/04 04:18:17;;;;;;;;;;;23.70;81.80;;;;;;5065829;28;19955;-53
2022/08/04 04:20:52;;;;;;;;;;;23.70;81.50;;;;;;5055855;28;19912;-54
2022/08/04 04:23:36;;;;;;;;;;;23.80;81.30;;;;;;5070487;28;19913;-50
2022/08/04 04:26:20;;;;;;;;;;;23.80;81.10;;;;;;5071696;28;19924;-52
2022/08/04 04:28:46;;;;;;;;;;;23.80;81.10;;;;;;5053805;28;19948;-49
2022/08/04 04:31:14;;;;;;;;;;;23.80;80.00;;;;;;5055984;28;20272;-53
2022/08/04 04:33:58;;;;;;;;;;;23.80;80.30;;;;;;5056131;28;20369;-52
2022/08/04 04:36:30;;;;;;;;;;;23.90;80.50;;;;;;5056424;28;19909;-55
2022/08/04 04:39:13;;;;;;;;;;;24.00;80.90;;;;;;5076111;28;19958;-52
2022/08/04 04:41:48;;;;;;;;;;;23.90;80.90;;;;;;5071825;28;20005;-54
2022/08/04 04:44:31;;;;;;;;;;;23.70;80.40;;;;;;5059712;28;19916;-53
2022/08/04 04:47:13;;;;;;;;;;;23.60;80.40;;;;;;5066464;28;20292;-48
2022/08/04 04:50:01;;;;;;;;;;;23.50;81.20;;;;;;5056128;28;19917;-53
2022/08/04 04:52:35;;;;;;;;;;;23.50;81.30;;;;;;5067445;28;19909;-51
2022/08/04 04:55:11;;;;;;;;;;;23.50;81.50;;;;;;5075836;28;20058;-52
2022/08/04 04:57:39;;;;;;;;;;;23.60;81.70;;;;;;5059784;28;19909;-48
2022/08/04 05:00:07;;;;;;;;;;;23.70;80.70;;;;;;5054073;28;19917;-49
2022/08/04 05:02:51;;;;;;;;;;;23.70;79.60;;;;;;5054740;28;19963;-53
2022/08/04 05:05:21;;;;;;;;;;;23.60;79.80;;;;;;5059614;28;20015;-55
2022/08/04 05:07:57;;;;;;;;;;;23.50;79.60;;;;;;5073831;28;19913;-53
2022/08/04 05:10:41;;;;;;;;;;;23.30;80.50;;;;;;5068296;28;19909;-49
2022/08/04 05:13:27;;;;;;;;;;;23.40;80.70;;;;;;5054505;28;19913;-52
2022/08/04 05:15:55;;;;;;;;;;;23.50;80.90;;;;;;5060772;28;19909;-54
2022/08/04 05:18:23;;;;;;;;;;;23.50;81.20;;;;;;5073856;28;20440;-50
2022/08/04 05:20:52;;;;;;;;;;;23.60;80.60;;;;;;5065962;28;19913;-51
2022/08/04 05:23:20;;;;;;;;;;;23.70;80.20;;;;;;5054000;28;19917;-53
2022/08/04 05:25:49;;;;;;;;;;;23.80;80.10;;;;;;5058315;28;20448;-50
2022/08/04 05:28:20;;;;;;;;;;;23.90;80.10;;;;;;5073671;28;20004;-52
2022/08/04 05:30:49;;;;;;;;;;;24.00;80.10;;;;;;5067734;28;19944;-48
2022/08/04 05:33:17;;;;;;;;;;;24.00;80.50;;;;;;5053598;28;19913;-49
2022/08/04 05:35:45;;;;;;;;;;;24.00;80.40;;;;;;5054047;28;19909;-49
2022/08/04 05:38:13;;;;;;;;;;;24.10;80.40;;;;;;5053918;28;19913;-50
2022/08/04 05:40:38;;;;;;;;;;;24.00;80.40;;;;;;5056050;28;20015;-54
2022/08/04 05:43:05;;;;;;;;;;;24.00;80.70;;;;;;5073549;28;19963;-49
2022/08/04 05:45:33;;;;;;;;;;;24.10;80.70;;;;;;5061849;28;19917;-54
2022/08/04 05:48:00;;;;;;;;;;;24.10;79.80;;;;;;5071833;28;20398;-53
2022/08/04 05:50:25;;;;;;;;;;;24.10;78.90;;;;;;5072040;28;20402;-52
2022/08/04 05:52:52;;;;;;;;;;;24.00;79.70;;;;;;5072535;28;19916;-53
2022/08/04 05:55:18;;;;;;;;;;;24.10;80.50;;;;;;5070849;28;19915;-50
2022/08/04 05:57:44;;;;;;;;;;;24.10;80.70;;;;;;5071401;28;19920;-51
2022/08/04 06:00:10;;;;;;;;;;;24.20;80.80;;;;;;5070025;28;20085;-53
2022/08/04 06:02:36;;;;;;;;;;;24.30;80.50;;;;;;5053598;28;20277;-49
2022/08/04 06:05:04;;;;;;;;;;;24.40;80.40;;;;;;5052586;28;19921;-54
2022/08/04 06:07:30;;;;;;;;;;;24.50;80.30;;;;;;5072519;28;19921;-49
2022/08/04 06:09:55;;;;;;;;;;;24.60;80.20;;;;;;5072952;28;19912;-52
2022/08/04 06:12:25;;;;;;;;;;;24.80;79.70;;;;;;5053539;28;19908;-53
2022/08/04 06:14:52;;;;;;;;;;;24.90;79.10;;;;;;5052822;28;19913;-49
2022/08/04 06:17:39;;;;;;;;;;;25.00;78.50;;;;;;5069902;28;19920;-54
2022/08/04 06:20:06;;;;;;;;;;;25.10;77.20;;;;;;5054234;28;19919;-54
2022/08/04 06:22:33;;;;;;;;;;;25.00;77.20;;;;;;5069411;28;20372;-52
2022/08/04 06:25:00;;;;;;;;;;;25.20;76.90;;;;;;5072711;28;20394;-56
2022/08/04 06:27:27;;;;;;;;;;;25.20;76.70;;;;;;5070243;28;20379;-51
2022/08/04 06:29:53;;;;;;;;;;;25.40;76.40;;;;;;5073092;28;20351;-54
2022/08/04 06:34:54;;;;;;;;;;;25.50;76.20;;;;;;5073525;28;19974;-53
2022/08/04 06:37:20;;;;;;;;;;;25.70;76.10;;;;;;5071754;28;20393;-54
2022/08/04 06:39:47;;;;;;;;;;;25.80;75.80;;;;;;5055205;28;20280;-52
2022/08/04 06:42:12;;;;;;;;;;;25.90;75.50;;;;;;5071593;28;19919;-55
2022/08/04 06:44:39;;;;;;;;;;;25.90;74.70;;;;;;5072153;28;19921;-56
2022/08/04 06:47:05;;;;;;;;;;;26.00;74.60;;;;;;5070565;28;19924;-53
2022/08/04 06:49:31;;;;;;;;;;;26.10;74.70;;;;;;5077960;28;19916;-51
2022/08/04 06:51:57;;;;;;;;;;;26.20;74.60;;;;;;5063752;28;19913;-56
2022/08/04 06:54:22;;;;;;;;;;;26.30;74.10;;;;;;5062666;28;20352;-54
2022/08/04 06:56:48;;;;;;;;;;;26.30;73.50;;;;;;5071959;28;19920;-53
2022/08/04 06:59:15;;;;;;;;;;;26.30;73.10;;;;;;5063812;28;19913;-50
2022/08/04 07:01:41;;;;;;;;;;;26.30;71.90;;;;;;5051795;28;19917;-49
2022/08/04 07:04:06;;;;;;;;;;;26.40;72.00;;;;;;5058652;28;20411;-53
2022/08/04 07:06:32;;;;;;;;;;;26.30;71.60;;;;;;5071818;28;20003;-57
2022/08/04 07:08:58;;;;;;;;;;;26.50;71.60;;;;;;5066832;28;19931;-53
2022/08/04 07:11:24;;;;;;;;;;;26.50;70.90;;;;;;5057095;28;19956;-51
2022/08/04 07:13:50;;;;;;;;;;;26.70;70.50;;;;;;5069435;28;19936;-53
2022/08/04 07:16:17;;;;;;;;;;;26.80;70.30;;;;;;5068885;28;20347;-55
2022/08/04 07:18:42;;;;;;;;;;;27.00;68.90;;;;;;5071762;28;19915;-55
2022/08/04 07:21:08;;;;;;;;;;;27.00;69.20;;;;;;5062114;28;19920;-51
2022/08/04 07:23:34;;;;;;;;;;;27.00;68.70;;;;;;5051939;28;20514;-55
2022/08/04 07:25:59;;;;;;;;;;;27.10;68.60;;;;;;5052256;28;19921;-52
2022/08/04 07:28:26;;;;;;;;;;;27.10;68.60;;;;;;5053094;28;19966;-50
2022/08/04 07:30:52;;;;;;;;;;;27.30;68.30;;;;;;5069658;28;20009;-58
2022/08/04 07:33:18;;;;;;;;;;;27.40;67.80;;;;;;5067487;28;19916;-56
2022/08/04 07:35:48;;;;;;;;;;;27.50;67.10;;;;;;5050195;28;19909;-54
2022/08/04 07:38:14;;;;;;;;;;;27.60;66.90;;;;;;5062529;28;19948;-57
2022/08/04 07:40:40;;;;;;;;;;;27.60;66.20;;;;;;5070877;28;19951;-52
2022/08/04 07:43:05;;;;;;;;;;;27.70;66.10;;;;;;5060049;28;20299;-52
2022/08/04 07:45:31;;;;;;;;;;;27.80;65.60;;;;;;5070765;28;19923;-51
2022/08/04 07:47:57;;;;;;;;;;;28.00;65.80;;;;;;5070495;28;20034;-54
2022/08/04 07:50:24;;;;;;;;;;;28.00;65.80;;;;;;5071463;28;19999;-51
2022/08/04 07:52:53;;;;;;;;;;;28.10;66.00;;;;;;5069604;28;19951;-54
2022/08/04 07:55:19;;;;;;;;;;;28.30;66.10;;;;;;5071389;28;20408;-55
2022/08/04 07:57:44;;;;;;;;;;;28.40;65.50;;;;;;5059288;28;20402;-55
2022/08/04 08:00:13;;;;;;;;;;;28.40;65.60;;;;;;5051541;28;20009;-53
2022/08/04 08:02:40;;;;;;;;;;;28.50;65.60;;;;;;5070367;28;20372;-56
2022/08/04 08:05:06;;;;;;;;;;;28.60;65.40;;;;;;5069060;28;20406;-55
2022/08/04 08:07:32;;;;;;;;;;;28.60;65.60;;;;;;5055597;28;19913;-53
2022/08/04 08:09:58;;;;;;;;;;;28.70;65.10;;;;;;5056542;28;19958;-53
2022/08/04 08:12:24;;;;;;;;;;;28.80;65.10;;;;;;5055916;28;19912;-52
2022/08/04 08:14:50;;;;;;;;;;;28.90;64.80;;;;;;5056031;28;19920;-52
2022/08/04 08:17:16;;;;;;;;;;;28.90;64.40;;;;;;5054759;28;19912;-53
2022/08/04 08:19:41;;;;;;;;;;;29.00;65.40;;;;;;5055899;28;19920;-55
2022/08/04 08:22:09;;;;;;;;;;;29.00;64.30;;;;;;5075278;28;19912;-50
2022/08/04 08:24:35;;;;;;;;;;;29.20;64.20;;;;;;5075054;28;20361;-52
2022/08/04 08:27:03;;;;;;;;;;;29.30;64.10;;;;;;5054315;28;20449;-50
2022/08/04 08:29:28;;;;;;;;;;;29.20;64.30;;;;;;5055077;28;20413;-54
2022/08/04 08:31:54;;;;;;;;;;;29.40;64.20;;;;;;5072414;28;19916;-52
2022/08/04 08:34:20;;;;;;;;;;;29.40;64.20;;;;;;5074996;28;20319;-55
2022/08/04 08:36:47;;;;;;;;;;;29.40;63.90;;;;;;5072954;28;19916;-51
2022/08/04 08:39:16;;;;;;;;;;;29.50;63.60;;;;;;5076230;28;19912;-53
2022/08/04 08:42:00;;;;;;;;;;;29.70;63.40;;;;;;5071244;28;19912;-54
2022/08/04 08:44:44;;;;;;;;;;;29.80;63.20;;;;;;5061438;28;20390;-52
2022/08/04 08:47:12;;;;;;;;;;;29.90;63.00;;;;;;5070656;28;19919;-47
2022/08/04 08:49:53;;;;;;;;;;;30.00;63.70;;;;;;5075679;28;19909;-51
2022/08/04 08:52:19;;;;;;;;;;;30.10;63.70;;;;;;5075181;28;19917;-54
2022/08/04 08:55:00;;;;;;;;;;;30.20;63.60;;;;;;5077639;28;20297;-50
2022/08/04 08:57:36;;;;;;;;;;;30.20;63.10;;;;;;5094605;28;19908;-52
2022/08/04 09:00:06;;;;;;;;;;;30.30;62.50;;;;;;5084354;28;19917;-55
2022/08/04 09:02:37;;;;;;;;;;;30.40;62.30;;;;;;5063405;28;19912;-47
2022/08/04 09:05:03;;;;;;;;;;;30.60;62.80;;;;;;5083627;28;19960;-54
2022/08/04 09:07:40;;;;;;;;;;;30.60;62.30;;;;;;5072677;28;19948;-48
2022/08/04 09:10:15;;;;;;;;;;;30.80;61.80;;;;;;5071274;28;19995;-50
2022/08/04 09:12:51;;;;;;;;;;;30.80;61.70;;;;;;5064626;28;19967;-50
2022/08/04 09:15:23;;;;;;;;;;;30.90;61.80;;;;;;5073809;28;19963;-50
2022/08/04 09:17:51;;;;;;;;;;;31.10;61.60;;;;;;5073519;28;19918;-47
2022/08/04 09:20:35;;;;;;;;;;;31.10;60.10;;;;;;5074356;28;19992;-48
2022/08/04 09:23:06;;;;;;;;;;;31.20;60.30;;;;;;5073972;28;20004;-47
2022/08/04 09:25:41;;;;;;;;;;;31.20;60.40;;;;;;5073391;28;20306;-51
2022/08/04 09:28:15;;;;;;;;;;;31.50;60.40;;;;;;5072350;28;19917;-55
2022/08/04 09:30:57;;;;;;;;;;;31.60;59.80;;;;;;5071090;28;19966;-54
2022/08/04 09:33:29;;;;;;;;;;;31.70;60.10;;;;;;5072641;28;19917;-56
2022/08/04 09:36:01;;;;;;;;;;;31.80;59.60;;;;;;5073068;28;20461;-52
2022/08/04 09:38:39;;;;;;;;;;;31.80;59.20;;;;;;5071778;28;20007;-52
2022/08/04 09:41:05;;;;;;;;;;;31.90;58.90;;;;;;5070961;28;20288;-51
2022/08/04 09:43:49;;;;;;;;;;;32.00;58.30;;;;;;5072400;28;19920;-55
2022/08/04 09:46:25;;;;;;;;;;;32.00;58.10;;;;;;5071239;28;19916;-53
2022/08/04 09:48:53;;;;;;;;;;;32.10;57.80;;;;;;5066647;28;20308;-53
2022/08/04 09:51:38;;;;;;;;;;;32.10;57.80;;;;;;5069921;28;20418;-51
2022/08/04 09:54:07;;;;;;;;;;;32.30;58.50;;;;;;5071779;28;19913;-51
2022/08/04 09:56:41;;;;;;;;;;;32.40;58.00;;;;;;5068968;28;19920;-50
2022/08/04 09:59:16;;;;;;;;;;;32.50;57.70;;;;;;5071874;28;20419;-53
2022/08/04 10:01:42;;;;;;;;;;;32.70;57.70;;;;;;5071753;28;20354;-52
2022/08/04 10:04:10;;;;;;;;;;;32.80;56.30;;;;;;5071144;28;20027;-52
2022/08/04 10:06:58;;;;;;;;;;;32.80;55.90;;;;;;5070993;28;19982;-50
2022/08/04 10:09:27;;;;;;;;;;;32.80;56.10;;;;;;5070523;28;19912;-49
2022/08/04 10:12:01;;;;;;;;;;;32.90;56.00;;;;;;5072208;28;20388;-52
2022/08/04 10:14:26;;;;;;;;;;;32.80;57.40;;;;;;5071094;28;19912;-52
2022/08/04 10:16:57;;;;;;;;;;;32.80;56.70;;;;;;5070769;28;20303;-54
2022/08/04 10:19:33;;;;;;;;;;;32.90;56.40;;;;;;5070415;28;20356;-53
2022/08/04 10:22:14;;;;;;;;;;;33.00;55.90;;;;;;5070631;28;20384;-50
2022/08/04 10:25:06;;;;;;;;;;;33.20;54.80;;;;;;5072076;28;19924;-52
2022/08/04 10:27:34;;;;;;;;;;;33.00;54.40;;;;;;5059463;28;19913;-52
2022/08/04 10:30:10;;;;;;;;;;;32.90;54.30;;;;;;5071085;28;19919;-53
2022/08/04 10:32:51;;;;;;;;;;;32.90;54.10;;;;;;5071131;28;19935;-53
2022/08/04 10:35:22;;;;;;;;;;;33.20;54.10;;;;;;5070377;28;20430;-52
2022/08/04 10:37:53;;;;;;;;;;;33.30;54.00;;;;;;5071754;28;20402;-50
2022/08/04 10:40:38;;;;;;;;;;;33.50;53.30;;;;;;5069983;28;20101;-57
2022/08/04 10:43:23;;;;;;;;;;;33.50;52.90;;;;;;5072792;28;20252;-48
2022/08/04 10:46:12;;;;;;;;;;;33.60;52.50;;;;;;5076102;28;19921;-52
2022/08/04 10:48:58;;;;;;;;;;;33.60;52.80;;;;;;5066978;28;19983;-55
2022/08/04 10:51:33;;;;;;;;;;;33.50;52.60;;;;;;5071501;28;19920;-53
2022/08/04 10:54:01;;;;;;;;;;;33.50;52.00;;;;;;5069023;28;20168;-53
2022/08/04 10:56:41;;;;;;;;;;;33.70;52.10;;;;;;5071470;28;19920;-52
2022/08/04 10:59:36;;;;;;;;;;;33.70;51.60;;;;;;5069924;28;19917;-53
2022/08/04 11:02:11;;;;;;;;;;;33.80;51.80;;;;;;5063820;28;20442;-57
2022/08/04 11:04:40;;;;;;;;;;;33.90;51.70;;;;;;5071654;28;20406;-50
2022/08/04 11:07:07;;;;;;;;;;;34.00;52.00;;;;;;5070716;28;19913;-56
2022/08/04 11:09:33;;;;;;;;;;;34.20;52.00;;;;;;5070999;28;19916;-52
2022/08/04 11:12:03;;;;;;;;;;;34.50;51.70;;;;;;5071631;28;20350;-51
2022/08/04 11:14:45;;;;;;;;;;;34.50;52.40;;;;;;5070609;28;19923;-52
2022/08/04 11:17:16;;;;;;;;;;;34.20;52.10;;;;;;5070391;28;19920;-52
2022/08/04 11:19:44;;;;;;;;;;;34.30;51.70;;;;;;5068461;28;19920;-55
2022/08/04 11:22:13;;;;;;;;;;;34.40;51.70;;;;;;5067945;28;19913;-52
2022/08/04 11:24:41;;;;;;;;;;;34.40;51.10;;;;;;5069823;28;19924;-53
2022/08/04 11:27:33;;;;;;;;;;;34.20;50.40;;;;;;5070469;28;19967;-50
2022/08/04 11:30:04;;;;;;;;;;;34.20;50.90;;;;;;5061006;28;19920;-52
2022/08/04 11:32:36;;;;;;;;;;;34.30;51.40;;;;;;5069001;28;20299;-52
2022/08/04 11:35:04;;;;;;;;;;;34.40;50.90;;;;;;5068975;28;20457;-54
2022/08/04 11:37:40;;;;;;;;;;;34.30;51.60;;;;;;5070539;28;19913;-50
2022/08/04 11:40:12;;;;;;;;;;;34.20;51.80;;;;;;5075275;28;19912;-51
2022/08/04 11:42:40;;;;;;;;;;;34.20;51.70;;;;;;5074452;28;20046;-55
2022/08/04 11:45:05;;;;;;;;;;;34.00;51.70;;;;;;5074296;28;20066;-53
2022/08/04 11:47:38;;;;;;;;;;;34.10;51.00;;;;;;5072840;28;20002;-56
2022/08/04 11:50:22;;;;;;;;;;;34.20;51.50;;;;;;5073806;28;19927;-54
2022/08/04 11:52:49;;;;;;;;;;;34.40;51.50;;;;;;5074763;28;20011;-54
2022/08/04 11:55:15;;;;;;;;;;;34.60;50.40;;;;;;5073223;28;19916;-51
2022/08/04 11:57:42;;;;;;;;;;;34.50;50.00;;;;;;5074471;28;20452;-50
2022/08/04 12:00:12;;;;;;;;;;;34.70;50.90;;;;;;5074005;28;19913;-51
2022/08/04 12:02:56;;;;;;;;;;;34.70;50.80;;;;;;5075103;28;19923;-53
2022/08/04 12:05:26;;;;;;;;;;;34.70;50.90;;;;;;5072952;28;19920;-53
2022/08/04 12:08:18;;;;;;;;;;;34.80;50.30;;;;;;5072545;28;19996;-53
2022/08/04 12:10:46;;;;;;;;;;;34.80;49.70;;;;;;5064534;28;20359;-54
2022/08/04 12:13:33;;;;;;;;;;;34.90;50.10;;;;;;5072082;28;20279;-55
2022/08/04 12:16:19;;;;;;;;;;;34.70;50.10;;;;;;5073609;28;19946;-56
2022/08/04 12:18:44;;;;;;;;;;;34.70;49.80;;;;;;5072933;28;19912;-55
2022/08/04 12:21:14;;;;;;;;;;;34.80;50.30;;;;;;5074270;28;19912;-54
2022/08/04 12:23:40;;;;;;;;;;;34.90;49.70;;;;;;5071638;28;19916;-54
2022/08/04 12:26:12;;;;;;;;;;;34.90;50.00;;;;;;5073809;28;19923;-56
2022/08/04 12:28:39;;;;;;;;;;;34.80;49.50;;;;;;5071749;28;19921;-54
2022/08/04 12:31:25;;;;;;;;;;;35.00;49.50;;;;;;5072701;28;19919;-53
2022/08/04 12:33:50;;;;;;;;;;;35.00;49.40;;;;;;5073293;28;19924;-53
2022/08/04 12:36:32;;;;;;;;;;;35.20;49.20;;;;;;5072702;28;19912;-54
2022/08/04 12:39:05;;;;;;;;;;;35.40;49.40;;;;;;5072668;28;19917;-54
2022/08/04 12:41:37;;;;;;;;;;;35.40;49.00;;;;;;5073059;28;20009;-57
2022/08/04 12:44:04;;;;;;;;;;;35.30;49.10;;;;;;5071990;28;19913;-55
2022/08/04 12:46:31;;;;;;;;;;;35.40;49.50;;;;;;5070878;28;19916;-52
2022/08/04 12:48:59;;;;;;;;;;;35.60;49.30;;;;;;5071437;28;19919;-57
2022/08/04 12:51:26;;;;;;;;;;;35.80;49.00;;;;;;5071823;28;21634;-58
2022/08/04 12:53:52;;;;;;;;;;;36.00;48.60;;;;;;5071670;28;20043;-50
2022/08/04 12:56:23;;;;;;;;;;;35.80;48.40;;;;;;5067233;28;20003;-52
2022/08/04 12:58:50;;;;;;;;;;;35.70;49.10;;;;;;5064519;28;20364;-50
2022/08/04 13:01:18;;;;;;;;;;;35.70;49.40;;;;;;5069008;28;20323;-59
2022/08/04 13:03:46;;;;;;;;;;;35.60;48.90;;;;;;5065335;28;19912;-56
2022/08/04 13:06:13;;;;;;;;;;;35.60;49.20;;;;;;5065640;28;19973;-53
2022/08/04 13:08:40;;;;;;;;;;;36.00;47.80;;;;;;5060509;28;19921;-53
2022/08/04 13:11:06;;;;;;;;;;;36.20;47.80;;;;;;5069777;28;20268;-53
2022/08/04 13:13:34;;;;;;;;;;;36.20;47.90;;;;;;5068166;28;19916;-54
2022/08/04 13:16:01;;;;;;;;;;;36.40;48.10;;;;;;5066873;28;19917;-57
2022/08/04 13:18:28;;;;;;;;;;;36.40;48.00;;;;;;5073636;28;19920;-52
2022/08/04 13:20:55;;;;;;;;;;;36.40;48.20;;;;;;5058589;28;20327;-54
2022/08/04 13:23:20;;;;;;;;;;;36.60;48.10;;;;;;5068638;28;20398;-53
2022/08/04 13:25:47;;;;;;;;;;;36.60;47.40;;;;;;5070938;28;20015;-62
2022/08/04 13:28:14;;;;;;;;;;;36.40;47.50;;;;;;5073033;28;20007;-55
2022/08/04 13:30:42;;;;;;;;;;;36.30;47.50;;;;;;5073383;28;20273;-54
2022/08/04 13:33:08;;;;;;;;;;;36.10;47.60;;;;;;5073462;28;20464;-55
2022/08/04 13:35:34;;;;;;;;;;;36.00;47.70;;;;;;5074424;28;19921;-55
2022/08/04 13:38:00;;;;;;;;;;;35.90;47.70;;;;;;5072534;28;19916;-55
2022/08/04 13:40:26;;;;;;;;;;;35.70;48.00;;;;;;5072588;28;19917;-53
2022/08/04 13:42:53;;;;;;;;;;;35.70;48.80;;;;;;5070558;28;19916;-53
2022/08/04 13:45:22;;;;;;;;;;;35.70;49.20;;;;;;5069165;28;19970;-52
2022/08/04 13:47:49;;;;;;;;;;;35.80;49.00;;;;;;5068651;28;19925;-55
2022/08/04 13:50:18;;;;;;;;;;;36.00;49.00;;;;;;5070690;28;19943;-53
2022/08/04 13:52:44;;;;;;;;;;;36.00;49.20;;;;;;5072392;28;20291;-54
2022/08/04 13:55:22;;;;;;;;;;;36.30;48.70;;;;;;5071032;28;20400;-54
2022/08/04 13:57:49;;;;;;;;;;;36.50;48.50;;;;;;5072139;28;19920;-52
2022/08/04 14:00:15;;;;;;;;;;;36.60;48.90;;;;;;5071486;28;19927;-52
2022/08/04 14:03:11;;;;;;;;;;;36.50;48.30;;;;;;5071194;28;19913;-49
2022/08/04 14:05:36;;;;;;;;;;;36.60;47.70;;;;;;5063374;28;20535;-50
2022/08/04 14:08:17;;;;;;;;;;;36.70;47.80;;;;;;5071439;28;19917;-52
2022/08/04 14:10:51;;;;;;;;;;;36.90;47.30;;;;;;5071351;28;19916;-53
2022/08/04 14:13:27;;;;;;;;;;;36.70;47.30;;;;;;5065244;28;20311;-57
2022/08/04 14:15:53;;;;;;;;;;;36.70;47.30;;;;;;5070466;28;19920;-55
2022/08/04 14:18:23;;;;;;;;;;;36.50;47.90;;;;;;5071319;28;19914;-55
2022/08/04 14:20:58;;;;;;;;;;;36.70;47.60;;;;;;5071229;28;19924;-54
2022/08/04 14:23:25;;;;;;;;;;;36.70;47.70;;;;;;5069993;28;20409;-52
2022/08/04 14:25:51;;;;;;;;;;;37.00;47.10;;;;;;5070717;28;19942;-52
2022/08/04 14:28:29;;;;;;;;;;;37.40;47.10;;;;;;5070173;28;20364;-56
2022/08/04 14:31:08;;;;;;;;;;;37.70;46.70;;;;;;5070219;28;19916;-52
2022/08/04 14:33:38;;;;;;;;;;;37.70;46.20;;;;;;5071500;28;19988;-52
2022/08/04 14:36:05;;;;;;;;;;;38.00;45.80;;;;;;5070278;28;20423;-54
2022/08/04 14:38:49;;;;;;;;;;;38.00;45.80;;;;;;5069032;28;19979;-53
2022/08/04 14:41:15;;;;;;;;;;;37.80;46.10;;;;;;5071353;28;20070;-51
2022/08/04 14:43:51;;;;;;;;;;;37.50;46.60;;;;;;5069974;28;19966;-54